Time;durP1;ratioP1;P1;durP2;ratioP2;P2;SDS_P1;SDS_P2;PMS_P1;PMS_P2;Temp;Humidity;BMP_temperature;BMP_pressure;BME280_temperature;BME280_humidity;BME280_pressure;Samples;Min_cycle;Max_cycle;Signal;HPM_P1;HPM_P2
2024/04/12 00:00:21;;;;;;;6.15;3.67;;;;;;;10.05;100.00;100070.50;6107010;19;19995;-69
2024/04/12 00:02:26;;;;;;;7.80;3.50;;;;;;;10.04;100.00;100071.63;6108593;19;20014;-69
2024/04/12 00:04:26;;;;;;;6.00;4.05;;;;;;;10.00;100.00;100065.97;6108658;19;20011;-69
2024/04/12 00:06:30;;;;;;;9.55;3.75;;;;;;;9.98;100.00;100070.22;6108152;19;20078;-69
2024/04/12 00:08:30;;;;;;;5.30;3.58;;;;;;;9.93;100.00;100062.09;6108008;19;20023;-69
2024/04/12 00:10:31;;;;;;;4.72;3.70;;;;;;;9.85;100.00;100059.09;6107842;19;20013;-69
2024/04/12 00:12:32;;;;;;;6.13;3.97;;;;;;;9.81;100.00;100054.53;6107474;19;20007;-69
2024/04/12 00:14:33;;;;;;;8.18;4.10;;;;;;;9.78;100.00;100053.25;6108202;19;20003;-69
2024/04/12 00:16:38;;;;;;;5.35;3.30;;;;;;;9.78;100.00;100055.22;6108044;19;20010;-69
2024/04/12 00:18:38;;;;;;;6.03;3.25;;;;;;;9.74;100.00;100052.31;6107975;19;20014;-69
2024/04/12 00:20:39;;;;;;;6.75;3.80;;;;;;;9.72;100.00;100045.50;6107603;19;20759;-69
2024/04/12 00:22:39;;;;;;;5.85;4.15;;;;;;;9.73;100.00;100047.13;6107783;19;20010;-69
2024/04/12 00:24:39;;;;;;;6.47;3.58;;;;;;;9.67;100.00;100040.16;6108627;19;20351;-69
2024/04/12 00:26:43;;;;;;;9.02;3.70;;;;;;;9.62;100.00;100040.34;6107691;19;20014;-69
2024/04/12 00:28:43;;;;;;;6.15;3.65;;;;;;;9.57;100.00;100035.81;6107053;19;20446;-69
2024/04/12 00:30:47;;;;;;;6.32;4.55;;;;;;;9.47;100.00;100028.72;6106582;19;20014;-69
2024/04/12 00:32:56;;;;;;;7.40;3.88;;;;;;;9.41;100.00;100026.47;6108642;19;20035;-69
2024/04/12 00:34:58;;;;;;;6.28;3.75;;;;;;;9.34;100.00;100028.94;6107669;19;20003;-69
2024/04/12 00:37:06;;;;;;;7.53;4.00;;;;;;;9.25;100.00;100031.75;6108630;19;20009;-69
2024/04/12 00:39:06;;;;;;;6.63;3.85;;;;;;;9.17;100.00;100019.59;6106717;19;20639;-69
2024/04/12 00:41:14;;;;;;;5.72;4.65;;;;;;;9.12;100.00;100024.50;6097767;19;20040;-69
2024/04/12 00:43:15;;;;;;;6.40;4.20;;;;;;;9.12;100.00;100022.56;6107952;19;20343;-69
2024/04/12 00:45:26;;;;;;;5.65;3.70;;;;;;;9.06;100.00;100017.53;6107138;19;20393;-69
2024/04/12 00:47:31;;;;;;;7.05;3.72;;;;;;;8.99;100.00;100023.56;6106479;19;20428;-69
2024/04/12 00:49:33;;;;;;;7.18;4.20;;;;;;;8.92;100.00;100026.00;6106321;19;20058;-69
2024/04/12 00:51:34;;;;;;;5.75;4.05;;;;;;;8.81;100.00;100025.56;6108211;19;20010;-69
2024/04/12 00:53:37;;;;;;;7.15;4.15;;;;;;;8.78;100.00;100028.19;6107604;19;20074;-69
2024/04/12 00:55:41;;;;;;;6.50;3.67;;;;;;;8.77;100.00;100026.53;6108190;19;20007;-69
2024/04/12 00:57:41;;;;;;;6.55;4.05;;;;;;;8.77;100.00;100027.38;6105017;19;20003;-69
2024/04/12 00:59:42;;;;;;;8.07;4.38;;;;;;;8.75;100.00;100026.06;6105444;19;20011;-69
2024/04/12 01:01:42;;;;;;;7.43;3.95;;;;;;;8.63;100.00;100029.50;6106456;19;20082;-69
2024/04/12 01:03:47;;;;;;;4.72;3.58;;;;;;;8.54;100.00;100032.28;6107224;19;20458;-69
2024/04/12 01:05:50;;;;;;;9.02;4.50;;;;;;;8.50;100.00;100036.00;6106940;19;20011;-69
2024/04/12 01:07:50;;;;;;;6.60;4.30;;;;;;;8.42;100.00;100032.13;6104299;19;20013;-69
2024/04/12 01:09:54;;;;;;;5.97;3.83;;;;;;;8.38;100.00;100029.22;6105732;19;20460;-69
2024/04/12 01:11:59;;;;;;;7.15;4.28;;;;;;;8.36;100.00;100023.22;6107115;19;20030;-69
2024/04/12 01:14:01;;;;;;;8.55;4.32;;;;;;;8.34;100.00;100024.63;6106896;19;20267;-69
2024/04/12 01:16:02;;;;;;;7.22;4.38;;;;;;;8.35;100.00;100032.59;6105393;19;20070;-70
2024/04/12 01:18:04;;;;;;;9.23;4.60;;;;;;;8.33;100.00;100028.53;6104913;19;20783;-69
2024/04/12 01:20:05;;;;;;;9.02;4.10;;;;;;;8.33;100.00;100025.78;6105522;19;20011;-69
2024/04/12 01:22:05;;;;;;;8.20;4.10;;;;;;;8.35;100.00;100032.59;6106742;19;20131;-69
2024/04/12 01:24:06;;;;;;;6.50;4.07;;;;;;;8.29;100.00;100027.56;6106264;19;20350;-69
2024/04/12 01:26:09;;;;;;;6.15;3.90;;;;;;;8.20;100.00;100029.53;6111307;19;20010;-69
2024/04/12 01:28:10;;;;;;;6.28;3.85;;;;;;;8.12;100.00;100033.91;6109131;19;20044;-69
2024/04/12 01:30:11;;;;;;;8.20;4.25;;;;;;;8.08;100.00;100033.72;6111677;19;20007;-69
2024/04/12 01:32:12;;;;;;;6.68;4.38;;;;;;;8.02;100.00;100032.25;6111333;19;20039;-69
2024/04/12 01:34:13;;;;;;;5.88;3.92;;;;;;;7.98;100.00;100036.00;6111681;19;20474;-69
2024/04/12 01:36:13;;;;;;;6.45;4.20;;;;;;;7.96;100.00;100022.53;6111359;19;20006;-69
2024/04/12 01:38:16;;;;;;;6.68;4.03;;;;;;;7.95;100.00;100022.88;6111135;19;20022;-69
2024/04/12 01:40:17;;;;;;;6.65;4.00;;;;;;;7.96;100.00;100030.81;6106855;19;20343;-69
2024/04/12 01:42:18;;;;;;;7.20;4.32;;;;;;;7.92;100.00;100040.84;6104429;19;20010;-69
2024/04/12 01:44:24;;;;;;;9.02;4.20;;;;;;;7.85;100.00;100029.47;6104324;19;20020;-69
2024/04/12 01:46:27;;;;;;;6.60;4.30;;;;;;;7.81;100.00;100034.03;6105343;19;20224;-69
2024/04/12 01:48:28;;;;;;;6.95;3.83;;;;;;;7.72;100.00;100034.00;6103351;19;20009;-69
2024/04/12 01:50:30;;;;;;;6.70;3.97;;;;;;;7.66;100.00;100038.03;6104023;19;20487;-69
2024/04/12 01:52:33;;;;;;;7.53;4.82;;;;;;;7.63;100.00;100041.44;6104322;19;20400;-69
2024/04/12 01:54:33;;;;;;;11.32;4.60;;;;;;;7.52;100.00;100035.41;6104465;19;20348;-69
2024/04/12 01:56:34;;;;;;;6.45;4.25;;;;;;;7.49;100.00;100043.50;6104468;19;20010;-69
2024/04/12 01:58:37;;;;;;;7.72;4.40;;;;;;;7.43;100.00;100048.34;6103507;19;20090;-69
2024/04/12 02:00:37;;;;;;;6.93;4.47;;;;;;;7.42;100.00;100040.41;6103369;19;20010;-69
2024/04/12 02:02:38;;;;;;;9.48;4.13;;;;;;;7.40;100.00;100040.72;6105346;19;20032;-69
2024/04/12 02:04:38;;;;;;;7.53;4.25;;;;;;;7.40;100.00;100034.41;6104903;19;20006;-69
2024/04/12 02:06:42;;;;;;;7.03;4.40;;;;;;;7.39;100.00;100041.03;6103756;19;20044;-69
2024/04/12 02:08:44;;;;;;;8.75;4.47;;;;;;;7.37;100.00;100037.81;6103185;19;20347;-69
2024/04/12 02:10:48;;;;;;;4.35;3.55;;;;;;;7.37;100.00;100049.63;6103491;19;20360;-69
2024/04/12 02:12:53;;;;;;;7.15;4.28;;;;;;;7.30;100.00;100041.84;6102854;19;20011;-69
2024/04/12 02:14:54;;;;;;;5.15;4.00;;;;;;;7.26;100.00;100040.00;6103897;19;20010;-69
2024/04/12 02:16:55;;;;;;;5.25;4.03;;;;;;;7.20;100.00;100047.63;6103020;19;20522;-69
2024/04/12 02:18:56;;;;;;;10.00;4.25;;;;;;;7.14;100.00;100043.38;6101143;19;20316;-69
2024/04/12 02:20:56;;;;;;;6.53;4.68;;;;;;;7.14;100.00;100048.06;6102377;19;20018;-69
2024/04/12 02:22:56;;;;;;;7.50;4.35;;;;;;;7.11;100.00;100040.44;6103241;19;20011;-69
2024/04/12 02:24:56;;;;;;;7.35;3.97;;;;;;;7.08;100.00;100041.88;6102992;19;20432;-69
2024/04/12 02:26:57;;;;;;;9.10;4.43;;;;;;;7.07;100.00;100044.97;6102638;19;20002;-69
2024/04/12 02:29:01;;;;;;;5.88;3.85;;;;;;;7.07;100.00;100047.72;6101421;19;20023;-69
2024/04/12 02:31:01;;;;;;;6.07;3.53;;;;;;;7.00;100.00;100048.16;6102381;19;20070;-69
2024/04/12 02:33:02;;;;;;;7.30;3.70;;;;;;;6.95;100.00;100051.88;6102535;19;20035;-69
2024/04/12 02:35:03;;;;;;;5.57;3.80;;;;;;;6.91;100.00;100044.56;6103332;19;20323;-69
2024/04/12 02:37:04;;;;;;;5.33;3.40;;;;;;;6.93;100.00;100042.28;6100699;19;20003;-69
2024/04/12 02:39:08;;;;;;;5.97;3.88;;;;;;;6.96;100.00;100041.69;6101980;19;20251;-69
2024/04/12 02:41:15;;;;;;;6.75;3.78;;;;;;;6.99;100.00;100052.84;6107836;19;20006;-69
2024/04/12 02:43:16;;;;;;;4.75;3.55;;;;;;;7.01;100.00;100047.84;6109732;19;20398;-69
2024/04/12 02:45:16;;;;;;;8.60;3.78;;;;;;;7.03;100.00;100051.13;6110700;19;20010;-69
2024/04/12 02:47:17;;;;;;;6.35;4.05;;;;;;;7.04;100.00;100049.97;6110061;19;20014;-69
2024/04/12 02:49:19;;;;;;;6.78;4.47;;;;;;;7.04;100.00;100043.66;6107987;19;20127;-69
2024/04/12 02:51:22;;;;;;;6.80;3.90;;;;;;;7.03;100.00;100033.75;6110296;19;20010;-69
2024/04/12 02:53:26;;;;;;;7.35;4.00;;;;;;;7.00;100.00;100039.91;6110274;19;20003;-69
2024/04/12 02:55:30;;;;;;;4.93;3.80;;;;;;;6.92;100.00;100030.47;6109451;19;20009;-69
2024/04/12 02:57:31;;;;;;;9.05;4.20;;;;;;;6.84;100.00;100033.19;6109559;19;20066;-69
2024/04/12 02:59:31;;;;;;;6.45;4.05;;;;;;;6.84;100.00;100042.25;6107650;19;20479;-69
2024/04/12 03:01:33;;;;;;;6.28;3.63;;;;;;;6.82;100.00;100038.19;6109707;19;20005;-69
2024/04/12 03:03:45;;;;;;;5.82;4.07;;;;;;;6.76;100.00;100043.00;6109870;19;20002;-69
2024/04/12 03:05:45;;;;;;;8.23;4.28;;;;;;;6.73;100.00;100032.66;6108542;19;20009;-69
2024/04/12 03:07:46;;;;;;;7.05;4.30;;;;;;;6.73;100.00;100033.47;6108132;19;20011;-69
2024/04/12 03:09:46;;;;;;;7.13;3.92;;;;;;;6.69;100.00;100026.13;6107909;19;20003;-69
2024/04/12 03:11:47;;;;;;;6.72;3.97;;;;;;;6.68;100.00;100036.31;6107962;19;20345;-69
2024/04/12 03:14:04;;;;;;;9.20;3.97;;;;;;;6.65;100.00;100030.66;6109547;19;20010;-69
2024/04/12 03:16:13;;;;;;;6.60;3.97;;;;;;;6.62;100.00;100037.59;6107099;19;20009;-69
2024/04/12 03:18:15;;;;;;;6.65;3.83;;;;;;;6.58;100.00;100028.34;6108896;19;20027;-69
2024/04/12 03:20:18;;;;;;;9.60;3.90;;;;;;;6.54;100.00;100032.84;6107998;19;20030;-69
2024/04/12 03:22:20;;;;;;;4.90;3.65;;;;;;;6.54;100.00;100029.28;6108932;19;20462;-69
2024/04/12 03:24:21;;;;;;;7.05;3.90;;;;;;;6.52;100.00;100039.78;6109981;19;20161;-69
2024/04/12 03:26:21;;;;;;;6.22;4.50;;;;;;;6.48;100.00;100040.41;6108657;19;20006;-69
2024/04/12 03:28:23;;;;;;;5.60;3.95;;;;;;;6.40;100.00;100046.66;6108466;19;20027;-69
2024/04/12 03:30:29;;;;;;;12.18;3.92;;;;;;;6.40;100.00;100048.59;6108520;19;20481;-69
2024/04/12 03:32:32;;;;;;;8.35;3.80;;;;;;;6.35;100.00;100043.22;6108217;19;20418;-69
2024/04/12 03:34:35;;;;;;;7.68;3.67;;;;;;;6.35;100.00;100045.97;6108915;19;20006;-69
2024/04/12 03:38:37;;;;;;;6.03;3.90;;;;;;;6.34;100.00;100045.16;6107853;19;20454;-69
2024/04/12 03:40:38;;;;;;;5.30;3.80;;;;;;;6.35;100.00;100037.72;6108144;19;20362;-69
2024/04/12 03:42:41;;;;;;;7.25;3.83;;;;;;;6.32;100.00;100041.09;6109581;19;20066;-69
2024/04/12 03:44:42;;;;;;;7.85;4.05;;;;;;;6.30;100.00;100040.59;6107711;19;20033;-69
2024/04/12 03:46:44;;;;;;;7.28;4.13;;;;;;;6.30;100.00;100037.84;6108443;19;20006;-69
2024/04/12 03:48:45;;;;;;;8.25;3.67;;;;;;;6.27;100.00;100035.72;6106147;19;20007;-69
2024/04/12 03:50:48;;;;;;;6.90;3.70;;;;;;;6.26;100.00;100037.66;6107907;19;20033;-69
2024/04/12 03:52:49;;;;;;;10.70;4.80;;;;;;;6.24;100.00;100036.34;6107967;19;20010;-69
2024/04/12 03:54:50;;;;;;;11.55;4.10;;;;;;;6.22;100.00;100033.09;6108224;19;20022;-69
2024/04/12 03:57:05;;;;;;;10.87;4.47;;;;;;;6.23;100.00;100027.28;6107798;19;20132;-69
2024/04/12 03:59:06;;;;;;;8.32;3.88;;;;;;;6.23;100.00;100037.47;6106085;19;20570;-69
2024/04/12 04:01:09;;;;;;;9.52;4.07;;;;;;;6.25;100.00;100035.22;6108257;19;20009;-69
2024/04/12 04:03:19;;;;;;;10.75;4.15;;;;;;;6.24;100.00;100039.09;6108121;19;20056;-69
2024/04/12 04:05:25;;;;;;;12.82;4.15;;;;;;;6.17;100.00;100040.34;6108148;19;20014;-69
2024/04/12 04:07:25;;;;;;;15.35;4.40;;;;;;;6.16;100.00;100046.94;6106060;19;20010;-69
2024/04/12 04:09:26;;;;;;;10.55;7.05;;;;;;;6.14;100.00;100040.97;6107914;19;20746;-69
2024/04/12 04:11:26;;;;;;;6.03;4.47;;;;;;;6.16;100.00;100041.47;6106901;19;20074;-69
2024/04/12 04:13:28;;;;;;;6.40;3.72;;;;;;;6.21;100.00;100032.28;6108190;19;20490;-69
2024/04/12 04:15:29;;;;;;;6.40;3.85;;;;;;;6.20;100.00;100031.44;6107326;19;20006;-69
2024/04/12 04:17:29;;;;;;;10.15;3.88;;;;;;;6.19;100.00;100031.78;6108236;19;20012;-69
2024/04/12 04:19:31;;;;;;;6.65;4.57;;;;;;;6.18;100.00;100025.47;6107058;19;20074;-69
2024/04/12 04:21:38;;;;;;;11.95;4.93;;;;;;;6.19;100.00;100021.59;6107911;19;20018;-69
2024/04/12 04:23:42;;;;;;;7.18;3.58;;;;;;;6.27;100.00;100016.47;6106986;19;20050;-69
2024/04/12 04:25:44;;;;;;;9.32;3.92;;;;;;;6.29;100.00;100012.31;6107293;19;20042;-69
2024/04/12 04:27:45;;;;;;;8.63;4.07;;;;;;;6.35;100.00;100015.72;6107060;19;20573;-69
2024/04/12 04:29:45;;;;;;;6.72;3.78;;;;;;;6.37;100.00;99999.72;6106711;19;19999;-69
2024/04/12 04:31:49;;;;;;;8.52;3.83;;;;;;;6.39;100.00;99992.00;6106819;19;20227;-69
2024/04/12 04:33:49;;;;;;;11.45;4.00;;;;;;;6.37;100.00;99984.06;6105010;19;20007;-69
2024/04/12 04:35:50;;;;;;;6.28;3.60;;;;;;;6.35;100.00;99980.78;6107229;19;20023;-69
2024/04/12 04:37:52;;;;;;;7.53;3.80;;;;;;;6.30;100.00;99977.38;6106156;19;20424;-69
2024/04/12 04:39:53;;;;;;;10.90;3.85;;;;;;;6.30;100.00;99993.88;6106152;19;20019;-69
2024/04/12 04:41:53;;;;;;;9.50;3.92;;;;;;;6.29;100.00;100003.22;6106580;19;20465;-69
2024/04/12 04:43:54;;;;;;;7.93;3.97;;;;;;;6.21;100.00;100002.06;6106984;19;20006;-69
2024/04/12 04:45:54;;;;;;;16.90;4.93;;;;;;;6.14;100.00;100004.44;6105914;19;20002;-69
2024/04/12 04:47:54;;;;;;;7.53;3.90;;;;;;;6.06;100.00;100003.22;6106166;19;20032;-69
2024/04/12 04:49:55;;;;;;;7.28;3.30;;;;;;;5.97;100.00;100002.34;6106543;19;20020;-69
2024/04/12 04:51:56;;;;;;;6.68;3.55;;;;;;;5.94;100.00;99991.16;6105763;19;20014;-69
2024/04/12 04:53:59;;;;;;;6.35;3.60;;;;;;;5.88;100.00;100005.00;6106169;19;20062;-69
2024/04/12 04:56:01;;;;;;;7.80;4.45;;;;;;;5.83;100.00;100010.59;6106989;19;20011;-69
2024/04/12 04:58:01;;;;;;;8.63;4.10;;;;;;;5.82;100.00;100006.22;6105510;19;20013;-69
2024/04/12 05:00:06;;;;;;;8.68;4.18;;;;;;;5.79;100.00;99995.03;6104825;19;20007;-70
2024/04/12 05:02:06;;;;;;;5.63;3.88;;;;;;;5.84;100.00;99992.19;6110931;19;20034;-69
2024/04/12 05:04:15;;;;;;;5.53;3.85;;;;;;;5.87;100.00;100003.34;6111354;19;20006;-69
2024/04/12 05:06:24;;;;;;;6.93;4.45;;;;;;;5.89;100.00;100005.81;6111690;19;20064;-69
2024/04/12 05:08:24;;;;;;;10.57;4.45;;;;;;;5.89;100.00;100003.06;6112700;19;20050;-69
2024/04/12 05:10:25;;;;;;;7.78;3.85;;;;;;;5.90;100.00;100002.78;6111538;19;20336;-69
2024/04/12 05:12:28;;;;;;;7.32;4.15;;;;;;;5.90;100.00;100001.94;6112815;19;20007;-69
2024/04/12 05:16:34;;;;;;;6.68;4.68;;;;;;;5.97;100.00;100007.84;6111847;19;19918;-69
2024/04/12 05:18:34;;;;;;;7.40;4.20;;;;;;;5.98;100.00;100009.47;6111386;19;20002;-69
2024/04/12 05:20:39;;;;;;;5.13;3.90;;;;;;;5.99;100.00;100010.28;6111982;19;20392;-69
2024/04/12 05:22:41;;;;;;;8.40;4.72;;;;;;;5.98;100.00;100006.72;6112629;19;20017;-69
2024/04/12 05:24:42;;;;;;;7.22;3.95;;;;;;;5.98;100.00;100017.72;6112056;19;19999;-69
2024/04/12 05:26:42;;;;;;;9.50;4.18;;;;;;;5.99;100.00;100022.09;6112074;19;20093;-69
2024/04/12 05:28:43;;;;;;;11.00;4.45;;;;;;;6.02;100.00;100015.13;6111736;19;20009;-69
2024/04/12 05:30:46;;;;;;;8.10;4.53;;;;;;;6.05;100.00;100012.59;6110588;19;20328;-69
2024/04/12 05:32:47;;;;;;;10.80;4.65;;;;;;;6.10;100.00;100015.22;6111020;19;19999;-69
2024/04/12 05:34:47;;;;;;;8.55;4.03;;;;;;;6.12;100.00;100013.00;6110122;19;20106;-69
2024/04/12 05:36:47;;;;;;;10.52;4.80;;;;;;;6.15;100.00;100012.34;6112217;19;20070;-69
2024/04/12 05:38:48;;;;;;;9.07;4.47;;;;;;;6.23;100.00;100021.78;6110826;19;20006;-69
2024/04/12 05:40:52;;;;;;;10.43;4.70;;;;;;;6.27;100.00;100013.72;6102872;19;20022;-69
2024/04/12 05:42:52;;;;;;;10.80;4.90;;;;;;;6.36;100.00;100017.34;6110900;19;20010;-69
2024/04/12 05:44:52;;;;;;;13.57;4.60;;;;;;;6.40;100.00;100021.09;6112057;19;20050;-69
2024/04/12 05:46:53;;;;;;;9.05;4.65;;;;;;;6.45;100.00;100026.47;6111272;19;20006;-69
2024/04/12 05:48:53;;;;;;;9.07;5.10;;;;;;;6.46;100.00;100015.19;6109519;19;20026;-69
2024/04/12 05:50:55;;;;;;;9.30;4.68;;;;;;;6.47;100.00;100019.53;6111321;19;20014;-69
2024/04/12 05:52:55;;;;;;;12.27;5.10;;;;;;;6.51;100.00;100016.97;6111334;19;20006;-69
2024/04/12 05:54:58;;;;;;;12.27;4.82;;;;;;;6.56;100.00;100027.84;6110622;19;20531;-69
2024/04/12 05:56:59;;;;;;;9.38;4.72;;;;;;;6.59;100.00;100029.97;6108654;19;19998;-69
2024/04/12 05:59:01;;;;;;;11.00;5.25;;;;;;;6.65;100.00;100030.66;6109403;19;20466;-69
2024/04/12 06:01:01;;;;;;;11.60;5.13;;;;;;;6.71;100.00;100030.22;6111044;19;20030;-69
2024/04/12 06:03:01;;;;;;;9.05;4.60;;;;;;;6.81;100.00;100029.13;6107929;19;20567;-69
2024/04/12 06:05:04;;;;;;;10.38;5.07;;;;;;;6.82;100.00;100036.25;6110056;19;20007;-69
2024/04/12 06:07:11;;;;;;;14.85;5.65;;;;;;;6.92;100.00;100026.91;6111354;19;21023;-69
2024/04/12 06:09:19;;;;;;;17.73;5.72;;;;;;;7.02;100.00;100023.88;6108870;19;20070;-68
2024/04/12 06:11:21;;;;;;;19.20;5.85;;;;;;;7.14;100.00;100023.31;6111023;19;20007;-69
2024/04/12 06:13:24;;;;;;;11.85;4.55;;;;;;;7.24;100.00;100018.31;6111016;19;20407;-69
2024/04/12 06:15:28;;;;;;;10.50;4.85;;;;;;;7.40;100.00;100031.66;6111228;19;20066;-69
2024/04/12 06:17:28;;;;;;;11.75;5.55;;;;;;;7.48;100.00;100023.41;6110147;19;20006;-69
2024/04/12 06:19:36;;;;;;;13.52;4.68;;;;;;;7.60;100.00;100026.34;6109645;19;20009;-69
2024/04/12 06:21:37;;;;;;;12.48;5.05;;;;;;;7.71;100.00;100040.66;6109983;19;20002;-69
2024/04/12 06:23:37;;;;;;;15.43;4.80;;;;;;;7.80;100.00;100037.91;6111377;19;20018;-69
2024/04/12 06:25:43;;;;;;;12.73;4.82;;;;;;;7.95;100.00;100040.22;6110196;19;20022;-69
2024/04/12 06:27:44;;;;;;;7.28;4.60;;;;;;;8.06;100.00;100044.25;6109458;19;20017;-69
2024/04/12 06:29:46;;;;;;;9.40;4.90;;;;;;;8.15;100.00;100041.50;6109864;19;20062;-69
2024/04/12 06:31:46;;;;;;;9.10;4.50;;;;;;;8.18;100.00;100029.81;6109740;19;20062;-69
2024/04/12 06:33:49;;;;;;;12.43;4.78;;;;;;;8.22;100.00;100030.00;6110425;19;20047;-69
2024/04/12 06:35:52;;;;;;;5.63;3.83;;;;;;;8.27;100.00;100032.56;6110684;19;20013;-69
2024/04/12 06:37:54;;;;;;;9.88;4.50;;;;;;;8.32;100.00;100035.19;6109103;19;20002;-69
2024/04/12 06:39:55;;;;;;;7.63;4.50;;;;;;;8.36;100.00;100027.94;6106366;19;20104;-69
2024/04/12 06:42:08;;;;;;;8.05;3.83;;;;;;;8.41;100.00;100031.31;6103216;19;20722;-69
2024/04/12 06:44:15;;;;;;;6.68;4.15;;;;;;;8.51;100.00;100029.34;6102666;19;20017;-69
2024/04/12 06:46:16;;;;;;;7.22;4.03;;;;;;;8.66;100.00;100026.09;6102649;19;20055;-69
2024/04/12 06:48:17;;;;;;;5.45;4.07;;;;;;;8.77;100.00;100010.81;6102203;19;20002;-69
2024/04/12 06:50:18;;;;;;;5.80;4.00;;;;;;;8.82;100.00;100021.66;6102287;19;20014;-69
2024/04/12 06:52:22;;;;;;;7.40;3.92;;;;;;;8.84;100.00;100013.84;6102389;19;20007;-69
2024/04/12 06:54:23;;;;;;;6.63;4.18;;;;;;;8.84;100.00;100013.84;6099946;19;20006;-69
2024/04/12 06:56:24;;;;;;;7.53;4.50;;;;;;;8.90;100.00;100015.31;6103650;19;20023;-69
2024/04/12 06:58:25;;;;;;;8.02;4.07;;;;;;;8.97;100.00;100014.81;6102493;19;20459;-69
2024/04/12 07:00:29;;;;;;;6.32;3.80;;;;;;;9.05;100.00;100013.97;6102110;19;20356;-69
2024/04/12 07:02:29;;;;;;;8.93;4.18;;;;;;;9.12;100.00;100021.75;6102439;19;20345;-69
2024/04/12 07:04:30;;;;;;;4.47;3.47;;;;;;;9.20;100.00;100026.44;6102994;19;20011;-69
2024/04/12 07:06:32;;;;;;;4.90;3.42;;;;;;;9.28;100.00;100020.88;6102592;19;20474;-69
2024/04/12 07:08:35;;;;;;;5.95;3.75;;;;;;;9.37;100.00;100011.72;6102595;19;20002;-69
2024/04/12 07:10:35;;;;;;;5.72;3.40;;;;;;;9.44;100.00;100018.34;6101571;19;20017;-69
2024/04/12 07:12:37;;;;;;;6.30;3.97;;;;;;;9.52;100.00;100016.69;6102951;19;20239;-69
2024/04/12 07:14:41;;;;;;;6.10;3.90;;;;;;;9.64;100.00;100019.53;6102907;19;20502;-69
2024/04/12 07:16:42;;;;;;;8.57;4.47;;;;;;;9.74;100.00;100021.09;6102398;19;20085;-69
2024/04/12 07:18:43;;;;;;;7.40;3.78;;;;;;;9.87;100.00;100028.31;6101706;19;20003;-69
2024/04/12 07:20:48;;;;;;;6.75;4.43;;;;;;;10.00;100.00;100029.19;6102200;19;20009;-69
2024/04/12 07:22:51;;;;;;;5.75;3.85;;;;;;;10.08;100.00;100023.59;6100289;19;20078;-69
2024/04/12 07:24:52;;;;;;;9.88;4.07;;;;;;;10.17;100.00;100028.25;6102230;19;20080;-69
2024/04/12 07:26:54;;;;;;;8.75;4.18;;;;;;;10.23;100.00;100026.94;6101007;19;20012;-69
2024/04/12 07:28:59;;;;;;;7.23;4.10;;;;;;;10.32;100.00;100028.50;6100899;19;20006;-69
2024/04/12 07:30:59;;;;;;;6.32;3.83;;;;;;;10.41;100.00;100023.69;6101268;19;20657;-69
2024/04/12 07:33:00;;;;;;;9.52;3.90;;;;;;;10.50;100.00;100017.25;6102698;19;20006;-69
2024/04/12 07:35:04;;;;;;;10.95;3.72;;;;;;;10.60;100.00;100025.16;6101452;19;20007;-69
2024/04/12 07:37:06;;;;;;;5.28;3.67;;;;;;;10.67;100.00;100015.16;6101358;19;20427;-69
2024/04/12 07:39:10;;;;;;;4.28;3.38;;;;;;;10.74;100.00;100014.56;6100093;19;20349;-69
2024/04/12 07:41:10;;;;;;;5.20;3.40;;;;;;;10.85;100.00;100009.44;6106256;19;20010;-69
2024/04/12 07:43:11;;;;;;;10.65;4.57;;;;;;;10.95;100.00;100015.34;6109416;19;20476;-69
2024/04/12 07:45:25;;;;;;;5.68;3.67;;;;;;;11.10;100.00;99999.22;6108381;19;20015;-69
2024/04/12 07:47:29;;;;;;;6.95;3.28;;;;;;;11.23;100.00;100006.34;6109015;19;20014;-69
2024/04/12 07:49:39;;;;;;;5.53;3.50;;;;;;;11.38;100.00;100004.88;6107652;19;20015;-69
2024/04/12 07:51:40;;;;;;;5.57;4.03;;;;;;;11.46;100.00;99999.22;6108739;19;20014;-69
2024/04/12 07:53:40;;;;;;;6.45;3.70;;;;;;;11.58;100.00;99998.38;6108535;19;20007;-69
2024/04/12 07:55:41;;;;;;;7.00;3.33;;;;;;;11.66;100.00;100007.72;6108250;19;20065;-69
2024/04/12 07:57:50;;;;;;;7.10;3.30;;;;;;;11.78;100.00;100010.50;6107593;19;20014;-69
2024/04/12 07:59:51;;;;;;;5.55;3.63;;;;;;;11.92;100.00;100001.84;6104313;19;20033;-69
2024/04/12 08:01:57;;;;;;;10.55;3.47;;;;;;;12.04;100.00;99999.03;6108501;19;20859;-69
2024/04/12 08:04:05;;;;;;;7.72;3.55;;;;;;;12.20;100.00;100010.19;6107839;19;20035;-69
2024/04/12 08:06:06;;;;;;;4.72;3.00;;;;;;;12.36;100.00;100003.56;6107734;19;20021;-70
2024/04/12 08:08:14;;;;;;;8.45;3.60;;;;;;;12.49;100.00;99989.59;6106225;19;20458;-69
2024/04/12 08:10:28;;;;;;;7.60;3.25;;;;;;;12.67;100.00;99990.13;6106877;19;20003;-69
2024/04/12 08:12:31;;;;;;;12.48;3.58;;;;;;;12.75;100.00;100001.06;6108382;19;20074;-70
2024/04/12 08:14:33;;;;;;;7.32;3.63;;;;;;;12.85;100.00;100000.53;6107801;19;20630;-69
2024/04/12 08:16:35;;;;;;;6.22;3.55;;;;;;;12.93;100.00;99999.56;6108412;19;20358;-69
2024/04/12 08:18:36;;;;;;;8.52;3.30;;;;;;;12.93;100.00;99994.00;6106985;19;20002;-69
2024/04/12 08:20:39;;;;;;;11.25;3.30;;;;;;;13.00;100.00;99981.47;6106613;19;20311;-69
2024/04/12 08:22:42;;;;;;;6.07;2.67;;;;;;;13.08;100.00;99986.84;6107946;19;19998;-69
2024/04/12 08:24:49;;;;;;;8.60;3.03;;;;;;;13.20;100.00;99977.63;6107775;19;20007;-69
2024/04/12 08:26:52;;;;;;;6.80;3.13;;;;;;;13.33;100.00;99976.38;6107533;19;20003;-70
2024/04/12 08:28:54;;;;;;;7.78;3.22;;;;;;;13.44;100.00;99980.22;6105151;19;20335;-70
2024/04/12 08:31:05;;;;;;;6.80;2.85;;;;;;;13.61;100.00;99969.88;6107255;19;20002;-69
2024/04/12 08:33:14;;;;;;;5.93;2.40;;;;;;;13.78;100.00;99980.59;6106036;19;20011;-69
2024/04/12 08:35:19;;;;;;;4.15;2.30;;;;;;;13.89;100.00;99972.47;6109436;19;20020;-69
2024/04/12 08:37:20;;;;;;;6.03;2.50;;;;;;;13.96;100.00;99973.44;6111561;19;20014;-69
2024/04/12 08:39:26;;;;;;;4.97;1.55;;;;;;;14.20;100.00;99979.91;6111526;19;20052;-69
2024/04/12 08:41:31;;;;;;;5.32;1.48;;;;;;;14.47;100.00;99969.75;6112566;19;20006;-69
2024/04/12 08:43:41;;;;;;;1.98;1.63;;;;;;;14.58;100.00;99963.22;6112642;19;20030;-69
2024/04/12 08:45:43;;;;;;;2.35;1.30;;;;;;;14.63;100.00;99962.09;6111432;19;20006;-70
2024/04/12 08:48:02;;;;;;;2.17;1.20;;;;;;;14.74;100.00;99960.31;6111205;19;19999;-70
2024/04/12 08:50:07;;;;;;;5.35;1.67;;;;;;;15.00;100.00;99959.59;6110146;19;20019;-70
2024/04/12 08:52:24;;;;;;;3.72;1.20;;;;;;;15.04;100.00;99956.84;6112312;19;20681;-70
2024/04/12 08:54:26;;;;;;;2.65;1.40;;;;;;;15.10;100.00;99952.59;6114106;19;20363;-70
2024/04/12 08:56:28;;;;;;;2.08;1.50;;;;;;;15.18;100.00;99946.75;6113062;19;20045;-70
2024/04/12 08:58:30;;;;;;;;;;;;;;;15.17;100.00;99950.72;6113171;19;20007;-70
2024/04/12 09:00:33;;;;;;;2.35;1.10;;;;;;;15.30;100.00;99948.53;6111880;19;19910;-70
2024/04/12 09:02:48;;;;;;;2.95;1.15;;;;;;;15.47;100.00;99944.41;6113372;19;20045;-70
2024/04/12 09:04:48;;;;;;;4.00;1.10;;;;;;;15.66;100.00;99938.75;6113854;19;20594;-70
2024/04/12 09:06:48;;;;;;;6.75;1.65;;;;;;;15.90;100.00;99937.50;6110577;19;20014;-70
2024/04/12 09:08:54;;;;;;;9.93;1.85;;;;;;;16.14;100.00;99941.78;6111278;19;20006;-70
2024/04/12 09:10:59;;;;;;;1.50;0.80;;;;;;;16.21;100.00;99941.84;6113332;19;20026;-69
2024/04/12 09:13:00;;;;;;;5.07;1.10;;;;;;;16.23;100.00;99931.13;6111929;19;20010;-69
2024/04/12 09:15:01;;;;;;;3.27;1.90;;;;;;;16.33;100.00;99929.63;6112627;19;20019;-69
2024/04/12 09:17:06;;;;;;;1.73;1.33;;;;;;;16.51;100.00;99927.84;6112015;19;20255;-69
2024/04/12 09:19:13;;;;;;;3.20;0.80;;;;;;;16.61;100.00;99931.13;6111177;19;20013;-69
2024/04/12 09:21:24;;;;;;;4.10;1.23;;;;;;;16.76;100.00;99938.50;6112340;19;20011;-69
2024/04/12 09:23:32;;;;;;;7.10;1.30;;;;;;;16.83;100.00;99941.38;6113064;19;20002;-68
2024/04/12 09:25:35;;;;;;;2.15;1.15;;;;;;;16.79;100.00;99952.50;6110796;19;20466;-69
2024/04/12 09:27:43;;;;;;;3.30;1.20;;;;;;;16.78;100.00;99952.88;6111219;19;20581;-69
2024/04/12 09:29:58;;;;;;;1.33;0.90;;;;;;;16.95;100.00;99954.25;6110875;19;20033;-69
2024/04/12 09:34:29;;;;;;;3.33;1.50;;;;;;;17.07;100.00;99949.19;6008195;19;2005913;-69
2024/04/12 09:36:55;;;;;;;5.25;1.33;;;;;;;17.22;100.00;99947.31;6111657;19;20002;-69